Time;durP1;ratioP1;P1;durP2;ratioP2;P2;SDS_P1;SDS_P2;PMS_P1;PMS_P2;Temp;Humidity;BMP_temperature;BMP_pressure;BME280_temperature;BME280_humidity;BME280_pressure;Samples;Min_cycle;Max_cycle;Signal;HPM_P1;HPM_P2
2022/01/14 00:00:38;;;;;;;27.73;19.23;;;;;;;-0.19;93.89;98642.66;5090601;28;20402;-68
2022/01/14 00:03:03;;;;;;;30.77;20.55;;;;;;;-0.06;93.85;98640.00;5073524;28;20410;-65
2022/01/14 00:05:29;;;;;;;28.33;20.67;;;;;;;-0.15;93.20;98638.94;5091860;28;20424;-65
2022/01/14 00:07:54;;;;;;;28.83;19.53;;;;;;;-0.05;92.92;98634.72;5091204;28;20448;-66
2022/01/14 00:10:20;;;;;;;29.20;20.93;;;;;;;0.12;91.94;98638.63;5091106;28;20446;-65
2022/01/14 00:12:53;;;;;;;31.03;21.97;;;;;;;-0.05;92.82;98634.72;5091480;28;20492;-67
2022/01/14 00:15:26;;;;;;;30.67;21.50;;;;;;;-0.03;91.74;98630.28;5091177;28;20382;-66
2022/01/14 00:17:54;;;;;;;28.63;21.42;;;;;;;0.02;92.45;98624.78;5091690;28;20382;-66
2022/01/14 00:20:21;;;;;;;33.60;21.05;;;;;;;-0.04;92.50;98625.25;5091468;28;20432;-66
2022/01/14 00:22:46;;;;;;;27.40;21.13;;;;;;;0.00;91.93;98621.53;5091043;28;20397;-67
2022/01/14 00:33:25;;;;;;;31.35;21.98;;;;;;;0.33;91.24;98624.13;5091520;28;20477;-65
2022/01/14 00:35:50;;;;;;;28.83;21.77;;;;;;;0.04;92.62;98617.78;5091426;28;20472;-65
2022/01/14 00:38:15;;;;;;;36.10;23.80;;;;;;;-0.01;92.77;98625.84;5091292;28;20402;-65
2022/01/14 00:40:42;;;;;;;32.05;23.33;;;;;;;-0.24;94.48;98626.72;5091449;28;20459;-65
2022/01/14 00:43:09;;;;;;;32.15;23.15;;;;;;;-0.38;95.20;98626.09;5091130;28;20393;-65
2022/01/14 00:45:35;;;;;;;33.25;23.13;;;;;;;-0.25;95.55;98621.69;5091445;28;20430;-65
2022/01/14 00:48:02;;;;;;;29.50;21.90;;;;;;;-0.41;95.86;98616.84;5091325;28;20930;-65
2022/01/14 00:50:28;;;;;;;30.80;22.23;;;;;;;-0.33;95.39;98611.13;5091204;28;20509;-66
2022/01/14 00:52:54;;;;;;;29.88;20.95;;;;;;;-0.40;95.66;98609.94;5072959;28;20382;-65
2022/01/14 00:55:27;;;;;;;33.83;21.25;;;;;;;-0.30;95.67;98610.91;5073082;28;20518;-66
2022/01/14 01:00:25;;;;;;;27.40;18.88;;;;;;;-0.17;95.15;98609.06;5090574;28;20381;-66
2022/01/14 01:02:51;;;;;;;28.13;19.23;;;;;;;0.15;94.01;98602.31;5090814;28;20382;-65
2022/01/14 01:05:17;;;;;;;26.63;19.40;;;;;;;-0.02;94.26;98598.44;5072839;28;20490;-66
2022/01/14 01:07:47;;;;;;;27.35;20.17;;;;;;;0.11;94.08;98589.78;5090835;28;20400;-65
2022/01/14 01:10:13;;;;;;;27.65;19.58;;;;;;;0.10;94.03;98599.25;5090781;28;20390;-65
2022/01/14 01:15:07;;;;;;;28.23;19.47;;;;;;;0.34;92.08;98592.22;5094878;28;20507;-65
2022/01/14 01:17:33;;;;;;;29.80;19.88;;;;;;;0.13;93.08;98593.03;5094607;28;20731;-65
2022/01/14 01:20:00;;;;;;;27.53;19.23;;;;;;;-0.14;94.01;98588.22;5094124;28;20399;-65
2022/01/14 01:22:25;;;;;;;26.15;18.52;;;;;;;-0.17;94.26;98596.97;5094471;28;20960;-65
2022/01/14 01:24:51;;;;;;;25.42;18.13;;;;;;;-0.06;94.02;98598.78;5094525;28;20394;-66
2022/01/14 01:27:19;;;;;;;27.85;18.98;;;;;;;-0.14;93.98;98594.19;5094239;28;20394;-65
2022/01/14 01:30:00;;;;;;;25.70;18.60;;;;;;;0.03;93.89;98599.84;5095005;28;20422;-65
2022/01/14 01:32:26;;;;;;;25.95;19.10;;;;;;;0.04;93.22;98604.88;5089761;28;20471;-65
2022/01/14 01:34:51;;;;;;;26.73;18.42;;;;;;;-0.04;93.31;98599.47;5094548;28;20421;-65
2022/01/14 01:37:17;;;;;;;28.37;19.60;;;;;;;-0.12;93.64;98602.63;5093937;28;20531;-65
2022/01/14 01:39:42;;;;;;;25.70;18.33;;;;;;;0.04;93.38;98601.47;5094221;28;20406;-65
2022/01/14 01:42:09;;;;;;;26.40;19.10;;;;;;;-0.17;93.61;98599.56;5094224;28;20398;-65
2022/01/14 01:44:38;;;;;;;26.25;18.95;;;;;;;-0.10;93.28;98599.94;5094044;28;20402;-67
2022/01/14 01:47:04;;;;;;;26.88;19.30;;;;;;;-0.30;94.51;98596.28;5085679;28;20854;-65
2022/01/14 01:49:33;;;;;;;26.52;19.15;;;;;;;-0.32;94.83;98599.88;5094191;28;20397;-65
2022/01/14 01:51:59;;;;;;;24.88;19.23;;;;;;;-0.18;94.17;98594.53;5093288;28;20443;-65
2022/01/14 01:54:26;;;;;;;25.73;18.80;;;;;;;-0.31;94.51;98594.63;5094022;28;20795;-65
2022/01/14 01:56:53;;;;;;;28.15;19.45;;;;;;;-0.33;94.74;98600.81;5076006;28;20466;-65
2022/01/14 01:59:20;;;;;;;27.42;18.80;;;;;;;-0.37;94.98;98594.25;5094127;28;20421;-65
2022/01/14 02:01:45;;;;;;;25.80;18.85;;;;;;;-0.37;95.55;98594.25;5094070;28;20474;-65
2022/01/14 02:04:12;;;;;;;27.43;19.17;;;;;;;-0.32;95.15;98590.41;5093757;28;20742;-65
2022/01/14 02:06:39;;;;;;;26.05;18.17;;;;;;;-0.36;95.45;98588.19;5093583;28;20923;-66
2022/01/14 02:09:06;;;;;;;25.13;18.67;;;;;;;-0.35;95.21;98584.66;5093608;28;20394;-66
2022/01/14 02:11:32;;;;;;;26.65;19.10;;;;;;;-0.24;94.82;98595.00;5093655;28;20397;-65
2022/01/14 02:14:00;;;;;;;25.98;19.30;;;;;;;-0.22;94.33;98587.97;5093793;28;20386;-65
2022/01/14 02:19:16;;;;;;;27.02;18.92;;;;;;;-0.46;95.45;98573.41;5093675;28;20463;-66
2022/01/14 02:25:14;;;;;;;27.48;19.13;;;;;;;-0.42;95.13;98579.16;5093552;28;20443;-65
2022/01/14 02:27:19;;;;;;;27.55;19.90;;;;;;;-0.33;94.56;98575.88;5079574;28;20769;-66
2022/01/14 02:29:44;;;;;;;26.73;19.33;;;;;;;-0.42;95.27;98581.72;5093114;28;20400;-65
2022/01/14 02:32:10;;;;;;;28.03;19.27;;;;;;;-0.19;93.99;98574.88;5093027;28;20504;-65
2022/01/14 02:34:37;;;;;;;26.05;19.00;;;;;;;-0.28;93.86;98576.34;5092894;28;20401;-65
2022/01/14 02:37:03;;;;;;;27.42;18.90;;;;;;;-0.27;94.24;98574.59;5093412;28;20404;-65
2022/01/14 02:39:29;;;;;;;27.93;19.40;;;;;;;-0.35;94.50;98570.03;5093054;28;20884;-65
2022/01/14 02:41:54;;;;;;;28.77;19.73;;;;;;;-0.32;94.16;98566.41;5092365;28;20421;-65
2022/01/14 02:44:27;;;;;;;26.43;19.07;;;;;;;-0.48;94.12;98559.81;5092812;28;20878;-65
2022/01/14 02:46:57;;;;;;;26.60;19.08;;;;;;;-0.46;94.10;98554.56;5093027;28;20390;-65
2022/01/14 02:49:28;;;;;;;28.00;20.17;;;;;;;-0.57;94.41;98554.53;5093499;28;20469;-65
2022/01/14 02:51:55;;;;;;;26.67;19.58;;;;;;;-0.55;94.27;98550.91;5092812;28;20704;-65
2022/01/14 02:54:23;;;;;;;29.80;20.10;;;;;;;-0.29;92.99;98545.56;5091281;28;20865;-65
2022/01/14 02:56:52;;;;;;;26.98;20.02;;;;;;;-0.55;93.65;98545.75;5092133;28;20386;-65
2022/01/14 02:59:20;;;;;;;29.27;20.33;;;;;;;-0.66;94.29;98550.03;5092208;28;20926;-65
2022/01/14 03:01:47;;;;;;;26.27;20.02;;;;;;;-0.70;94.20;98552.03;5092841;28;20496;-65
2022/01/14 03:04:17;;;;;;;27.07;19.47;;;;;;;-0.65;93.59;98539.66;5092617;28;20506;-65
2022/01/14 03:06:43;;;;;;;31.07;21.17;;;;;;;-0.73;94.35;98544.56;5074185;28;20443;-66
2022/01/14 03:09:09;;;;;;;28.08;20.35;;;;;;;-0.82;94.71;98545.22;5092286;28;20777;-65
2022/01/14 03:11:48;;;;;;;27.30;20.08;;;;;;;-0.77;95.12;98537.13;5092731;28;20815;-65
2022/01/14 03:14:22;;;;;;;25.88;19.67;;;;;;;-0.80;95.59;98539.97;5092797;28;20957;-65
2022/01/14 03:16:48;;;;;;;29.57;20.57;;;;;;;-0.57;94.27;98533.94;5092025;28;20870;-66
2022/01/14 03:19:20;;;;;;;27.25;19.00;;;;;;;-0.71;94.69;98531.53;5092032;28;20378;-65
2022/01/14 03:21:45;;;;;;;25.85;19.83;;;;;;;-0.40;93.27;98530.09;5091989;28;20831;-65
2022/01/14 03:24:22;;;;;;;27.47;19.97;;;;;;;-0.48;92.97;98521.19;5074261;28;20441;-65
2022/01/14 03:26:50;;;;;;;27.10;19.10;;;;;;;-0.68;93.97;98519.28;5092212;28;20440;-66
2022/01/14 03:29:17;;;;;;;26.38;19.25;;;;;;;-0.85;94.77;98522.28;5075600;28;20394;-65
2022/01/14 03:31:44;;;;;;;27.90;19.30;;;;;;;-0.85;95.29;98514.56;5092517;28;20429;-65
2022/01/14 03:34:10;;;;;;;26.45;19.33;;;;;;;-0.72;94.48;98517.84;5090793;28;20870;-65
2022/01/14 03:36:35;;;;;;;25.85;18.60;;;;;;;-0.67;94.37;98520.13;5091911;28;20394;-65
2022/01/14 03:39:01;;;;;;;24.07;18.33;;;;;;;-0.70;94.29;98515.16;5073168;28;20453;-65
2022/01/14 03:41:26;;;;;;;25.67;18.23;;;;;;;-0.71;94.45;98518.69;5092149;28;20414;-65
2022/01/14 03:43:51;;;;;;;24.57;17.87;;;;;;;-0.66;94.32;98516.56;5074021;28;20696;-65
2022/01/14 03:46:17;;;;;;;25.13;18.05;;;;;;;-0.62;94.14;98515.44;5091985;28;20382;-65
2022/01/14 03:48:42;;;;;;;25.30;18.07;;;;;;;-0.86;94.75;98513.75;5091918;28;20885;-65
2022/01/14 03:51:08;;;;;;;23.27;17.93;;;;;;;-0.79;95.34;98521.00;5091494;28;20408;-65
2022/01/14 03:53:33;;;;;;;22.98;17.77;;;;;;;-0.74;94.48;98522.31;5091880;28;20952;-65
2022/01/14 03:55:59;;;;;;;23.88;17.42;;;;;;;-0.72;95.02;98524.75;5092290;28;20393;-65
2022/01/14 03:58:24;;;;;;;22.35;17.70;;;;;;;-0.81;94.99;98521.13;5091790;28;20750;-65
2022/01/14 04:00:50;;;;;;;24.87;18.47;;;;;;;-0.62;93.45;98518.00;5091668;28;20732;-66
2022/01/14 04:03:15;;;;;;;25.27;18.13;;;;;;;-0.57;92.87;98516.75;5091099;28;20390;-65
2022/01/14 04:05:41;;;;;;;24.83;18.48;;;;;;;-0.95;95.11;98513.59;5091732;28;20391;-65
2022/01/14 04:08:06;;;;;;;23.77;17.87;;;;;;;-0.75;95.23;98510.38;5091239;28;20400;-66
2022/01/14 04:10:32;;;;;;;27.27;18.80;;;;;;;-0.88;95.55;98519.91;5091555;28;20855;-65
2022/01/14 04:13:05;;;;;;;25.10;18.23;;;;;;;-0.71;94.97;98514.34;5091470;28;20471;-65
2022/01/14 04:15:45;;;;;;;25.13;18.15;;;;;;;-0.76;94.65;98508.72;5091901;28;20400;-64
2022/01/14 04:18:18;;;;;;;26.63;19.33;;;;;;;-0.67;93.89;98502.09;5092156;28;20742;-65
2022/01/14 04:20:47;;;;;;;24.27;18.85;;;;;;;-0.69;93.50;98507.34;5090708;28;20751;-65
2022/01/14 04:23:14;;;;;;;25.52;19.42;;;;;;;-0.87;94.20;98506.13;5091614;28;20378;-64
2022/01/14 04:25:40;;;;;;;25.30;18.80;;;;;;;-1.00;95.22;98497.66;5091801;28;20444;-65
2022/01/14 04:28:07;;;;;;;24.27;18.30;;;;;;;-1.00;95.20;98493.31;5091498;28;20385;-65
2022/01/14 04:30:34;;;;;;;25.48;18.98;;;;;;;-1.00;95.21;98489.94;5091252;28;20885;-65
2022/01/14 04:33:00;;;;;;;23.73;18.02;;;;;;;-0.82;94.78;98487.75;5091337;28;20477;-65
2022/01/14 04:35:26;;;;;;;25.08;18.17;;;;;;;-0.72;94.86;98481.00;5091126;28;20807;-65
2022/01/14 04:37:53;;;;;;;23.65;17.23;;;;;;;-0.80;94.81;98476.44;5091096;28;20459;-65
2022/01/14 04:40:18;;;;;;;24.65;18.00;;;;;;;-0.91;95.20;98479.81;5091130;28;20397;-64
2022/01/14 04:42:44;;;;;;;24.67;18.10;;;;;;;-0.87;95.12;98472.66;5091540;28;20414;-65
2022/01/14 04:45:12;;;;;;;23.67;17.48;;;;;;;-0.74;94.46;98472.59;5091481;28;20908;-65
2022/01/14 04:47:46;;;;;;;23.35;17.92;;;;;;;-0.65;93.44;98466.75;5095654;28;20488;-65
2022/01/14 04:50:15;;;;;;;22.67;17.70;;;;;;;-0.65;93.26;98470.13;5094810;28;20749;-65
2022/01/14 04:52:42;;;;;;;24.30;17.65;;;;;;;-0.76;93.53;98471.88;5094974;28;20394;-65
2022/01/14 04:55:10;;;;;;;24.75;18.48;;;;;;;-0.85;94.18;98468.22;5094981;28;20394;-65
2022/01/14 04:57:36;;;;;;;24.80;18.52;;;;;;;-0.84;93.97;98473.25;5095356;28;20382;-65
2022/01/14 05:00:07;;;;;;;25.05;18.67;;;;;;;-1.05;94.41;98472.25;5094932;28;20382;-65
2022/01/14 05:02:33;;;;;;;26.10;18.95;;;;;;;-0.96;93.54;98476.75;5094897;28;20438;-65
2022/01/14 05:04:59;;;;;;;26.52;19.05;;;;;;;-0.66;92.37;98472.81;5094803;28;20420;-65
2022/01/14 05:07:26;;;;;;;26.63;18.98;;;;;;;-0.91;92.98;98472.09;5094724;28;20905;-65
2022/01/14 05:12:28;;;;;;;25.55;18.17;;;;;;;-1.30;94.66;98470.66;5077805;28;20398;-66
2022/01/14 05:14:54;;;;;;;23.70;17.63;;;;;;;-1.29;94.83;98469.75;5076506;28;20866;-66
2022/01/14 05:17:19;;;;;;;25.20;18.10;;;;;;;-1.23;95.58;98472.81;5094829;28;20397;-65
2022/01/14 05:19:45;;;;;;;23.83;17.77;;;;;;;-1.19;94.97;98471.63;5094813;28;20927;-65
2022/01/14 05:22:11;;;;;;;24.50;17.42;;;;;;;-1.08;94.16;98466.53;5094622;28;20398;-65
2022/01/14 05:24:36;;;;;;;24.27;17.27;;;;;;;-1.17;94.28;98457.72;5094266;28;20834;-65
2022/01/14 05:27:02;;;;;;;21.83;16.58;;;;;;;-1.08;94.00;98466.53;5076866;28;20386;-65
2022/01/14 05:29:27;;;;;;;22.97;16.90;;;;;;;-1.00;93.41;98461.63;5094037;28;20886;-65
2022/01/14 05:32:01;;;;;;;21.17;16.53;;;;;;;-1.07;93.59;98458.72;5094529;28;20382;-65
2022/01/14 05:34:26;;;;;;;22.40;16.60;;;;;;;-0.98;93.60;98457.19;5094259;28;20572;-64
2022/01/14 05:36:52;;;;;;;22.47;16.63;;;;;;;-1.04;93.81;98462.78;5093368;28;20855;-65
2022/01/14 05:39:20;;;;;;;24.20;17.90;;;;;;;-1.04;92.95;98467.94;5093636;28;20418;-65
2022/01/14 05:41:46;;;;;;;24.00;17.35;;;;;;;-1.08;93.46;98469.94;5093926;28;20412;-67
2022/01/14 05:44:11;;;;;;;23.45;17.63;;;;;;;-1.23;93.53;98467.66;5093635;28;20382;-65
2022/01/14 05:46:37;;;;;;;24.53;18.20;;;;;;;-1.38;94.90;98472.97;5094475;28;20409;-65
2022/01/14 05:49:02;;;;;;;25.70;18.05;;;;;;;-1.37;95.46;98466.88;5094175;28;20382;-65
2022/01/14 05:51:27;;;;;;;24.60;18.40;;;;;;;-1.28;94.25;98468.78;5076027;28;20429;-65
2022/01/14 05:53:53;;;;;;;23.30;17.50;;;;;;;-1.37;94.99;98471.22;5076212;28;20866;-65
2022/01/14 05:56:18;;;;;;;22.87;17.33;;;;;;;-1.31;94.88;98475.91;5093792;28;20842;-65
2022/01/14 05:58:44;;;;;;;22.98;17.38;;;;;;;-1.38;95.65;98472.13;5092824;28;20385;-65
2022/01/14 06:01:09;;;;;;;24.37;17.33;;;;;;;-1.37;96.07;98472.03;5093334;28;20412;-66
2022/01/14 06:03:35;;;;;;;24.17;17.83;;;;;;;-1.41;95.42;98465.47;5075315;28;20382;-65
2022/01/14 06:06:00;;;;;;;23.42;17.55;;;;;;;-1.30;95.72;98462.94;5093610;28;20392;-64
2022/01/14 06:08:25;;;;;;;23.33;17.90;;;;;;;-1.40;95.74;98461.16;5093306;28;20412;-65
2022/01/14 06:10:51;;;;;;;25.23;17.17;;;;;;;-1.43;95.91;98461.38;5093585;28;20397;-66
2022/01/14 06:13:16;;;;;;;24.03;16.93;;;;;;;-1.33;95.75;98458.00;5093354;28;20920;-65
2022/01/14 06:15:42;;;;;;;22.90;16.83;;;;;;;-1.36;94.95;98454.84;5075143;28;20884;-64
2022/01/14 06:18:07;;;;;;;24.47;16.90;;;;;;;-1.24;94.50;98451.41;5093353;28;20396;-64
2022/01/14 06:20:32;;;;;;;21.97;16.97;;;;;;;-1.11;94.04;98446.16;5092913;28;20863;-65
2022/01/14 06:22:59;;;;;;;21.87;16.03;;;;;;;-1.16;93.72;98446.50;5092795;28;20389;-65
2022/01/14 06:25:25;;;;;;;26.02;17.45;;;;;;;-1.07;93.32;98445.03;5093093;28;20404;-65
2022/01/14 06:27:50;;;;;;;24.25;17.50;;;;;;;-0.90;91.21;98442.84;5092975;28;20390;-66
2022/01/14 06:30:16;;;;;;;22.27;16.65;;;;;;;-0.69;89.93;98450.72;5092951;28;20390;-64
2022/01/14 06:32:41;;;;;;;23.63;16.05;;;;;;;-1.10;92.51;98447.81;5092897;28;20402;-64
2022/01/14 06:35:09;;;;;;;21.30;15.97;;;;;;;-1.08;92.49;98445.94;5093318;28;20531;-64
2022/01/14 06:37:35;;;;;;;22.55;15.48;;;;;;;-1.15;92.96;98437.03;5075062;28;20409;-64
2022/01/14 06:40:00;;;;;;;18.63;14.77;;;;;;;-1.01;92.78;98447.97;5093273;28;20408;-64
2022/01/14 06:42:26;;;;;;;19.57;14.50;;;;;;;-0.94;92.55;98432.88;5092126;28;20923;-65
2022/01/14 06:44:51;;;;;;;17.97;14.10;;;;;;;-0.96;92.49;98432.19;5092809;28;20421;-64
2022/01/14 06:47:16;;;;;;;19.67;14.18;;;;;;;-0.77;91.55;98432.44;5075061;28;20382;-64
2022/01/14 06:49:42;;;;;;;18.80;14.13;;;;;;;-1.02;92.44;98438.59;5074763;28;20412;-64
2022/01/14 06:52:08;;;;;;;19.43;14.07;;;;;;;-1.18;94.14;98442.41;5092614;28;20381;-65
2022/01/14 06:54:33;;;;;;;19.03;13.97;;;;;;;-1.10;93.07;98450.38;5092844;28;20477;-65
2022/01/14 06:56:58;;;;;;;19.77;14.25;;;;;;;-0.94;92.22;98438.84;5092492;28;20398;-65
2022/01/14 06:59:24;;;;;;;18.73;13.27;;;;;;;-0.77;91.66;98445.31;5092924;28;20409;-64
2022/01/14 07:01:49;;;;;;;17.53;13.57;;;;;;;-0.89;91.77;98454.75;5092514;28;20414;-64
2022/01/14 07:04:15;;;;;;;20.58;14.85;;;;;;;-0.62;91.28;98453.66;5092492;28;20392;-64
2022/01/14 07:06:40;;;;;;;18.67;14.10;;;;;;;-0.88;91.09;98456.41;5092624;28;20390;-64
2022/01/14 07:09:05;;;;;;;17.70;14.33;;;;;;;-0.96;92.51;98461.31;5090882;28;20432;-65
2022/01/14 07:11:36;;;;;;;20.23;14.45;;;;;;;-1.15;92.89;98471.28;5092591;28;20394;-64
2022/01/14 07:14:03;;;;;;;20.60;14.97;;;;;;;-0.74;92.90;98475.16;5092540;28;20496;-65
2022/01/14 07:16:28;;;;;;;21.75;14.88;;;;;;;-0.65;92.92;98471.88;5091525;28;20408;-65
2022/01/14 07:18:54;;;;;;;20.73;15.50;;;;;;;-0.71;92.98;98496.34;5092108;28;20386;-65
2022/01/14 07:21:20;;;;;;;22.33;15.20;;;;;;;-0.60;91.69;98493.78;5091831;28;20411;-64
2022/01/14 07:23:45;;;;;;;21.63;15.45;;;;;;;-0.64;91.64;98487.22;5091828;28;20420;-66
2022/01/14 07:26:11;;;;;;;21.33;15.02;;;;;;;-0.53;91.18;98491.56;5092043;28;20378;-65
2022/01/14 07:28:36;;;;;;;19.17;14.30;;;;;;;-0.58;90.70;98493.66;5091907;28;20484;-66
2022/01/14 07:31:02;;;;;;;19.23;14.87;;;;;;;-0.22;90.09;98497.78;5091864;28;20890;-67
2022/01/14 07:33:27;;;;;;;19.83;14.23;;;;;;;-0.12;88.27;98499.56;5091547;28;20866;-66
2022/01/14 07:35:52;;;;;;;16.93;13.17;;;;;;;-0.29;89.47;98507.75;5091136;28;20751;-66
2022/01/14 07:38:18;;;;;;;20.37;14.50;;;;;;;-0.34;90.17;98506.47;5069827;28;20474;-65
2022/01/14 07:40:43;;;;;;;22.98;15.23;;;;;;;-0.68;90.83;98509.00;5071441;28;20388;-74
2022/01/14 07:43:09;;;;;;;21.17;15.30;;;;;;;-0.53;90.54;98507.03;5070356;28;20642;-68
2022/01/14 07:45:34;;;;;;;23.17;15.13;;;;;;;-0.19;89.60;98505.28;5071557;28;20391;-65
2022/01/14 07:47:59;;;;;;;20.85;14.57;;;;;;;-0.11;88.65;98510.66;5061883;28;20381;-66
2022/01/14 07:50:25;;;;;;;19.83;14.40;;;;;;;-0.08;88.30;98513.03;5056893;28;20391;-64
2022/01/14 07:52:50;;;;;;;19.27;14.40;;;;;;;-0.05;88.53;98518.75;5058172;28;20473;-65
2022/01/14 07:55:16;;;;;;;18.47;13.80;;;;;;;0.14;87.70;98509.63;5060738;28;20547;-64
2022/01/14 07:57:42;;;;;;;19.45;14.25;;;;;;;0.47;86.38;98516.47;5056684;28;20400;-65
2022/01/14 08:00:08;;;;;;;20.73;14.77;;;;;;;0.63;85.62;98511.75;5068057;28;20388;-66
2022/01/14 08:02:33;;;;;;;19.42;14.18;;;;;;;0.66;86.60;98503.78;5056817;28;20937;-66
2022/01/14 08:04:59;;;;;;;19.90;13.87;;;;;;;0.88;86.05;98501.13;5056608;28;20395;-66
2022/01/14 08:07:27;;;;;;;18.35;14.05;;;;;;;0.97;83.69;98508.13;5071153;28;20474;-65
2022/01/14 08:09:53;;;;;;;21.15;14.75;;;;;;;1.18;82.86;98516.69;5070238;28;20434;-65
2022/01/14 08:12:18;;;;;;;19.97;13.83;;;;;;;1.08;83.11;98509.81;5071724;28;20395;-66
2022/01/14 08:14:44;;;;;;;20.03;14.80;;;;;;;1.25;83.86;98512.69;5070805;28;20388;-66
2022/01/14 08:17:11;;;;;;;22.13;15.20;;;;;;;1.24;83.54;98505.88;5070323;28;20490;-66
2022/01/14 08:19:37;;;;;;;19.07;13.97;;;;;;;1.21;83.19;98503.56;5070483;28;20482;-66
2022/01/14 08:22:05;;;;;;;19.20;13.83;;;;;;;1.43;82.80;98512.09;5074060;28;20486;-66
2022/01/14 08:24:32;;;;;;;21.08;14.02;;;;;;;1.37;82.08;98510.03;5074782;28;20423;-67
2022/01/14 08:26:58;;;;;;;22.08;15.30;;;;;;;1.74;81.11;98508.59;5073125;28;20407;-66
2022/01/14 08:29:24;;;;;;;20.95;14.48;;;;;;;1.64;81.61;98508.56;5057663;28;20401;-67
2022/01/14 08:31:49;;;;;;;21.48;14.35;;;;;;;2.05;80.15;98507.66;5058586;28;20434;-67
2022/01/14 08:34:15;;;;;;;21.97;14.90;;;;;;;2.16;79.54;98505.94;5073160;28;20406;-66
2022/01/14 08:36:41;;;;;;;21.08;14.57;;;;;;;2.01;78.39;98515.78;5071310;28;20438;-67
2022/01/14 08:39:06;;;;;;;20.48;15.30;;;;;;;2.01;79.30;98516.63;5079546;28;20433;-67
2022/01/14 08:41:31;;;;;;;19.42;14.57;;;;;;;1.94;79.98;98512.13;5073584;28;20420;-68
2022/01/14 08:43:58;;;;;;;21.27;15.50;;;;;;;1.53;81.10;98515.56;5087918;28;20395;-67
2022/01/14 08:46:23;;;;;;;23.65;16.75;;;;;;;1.92;79.78;98506.25;5083409;28;20386;-67
2022/01/14 08:48:49;;;;;;;23.67;16.27;;;;;;;1.92;79.46;98512.22;5078149;28;20787;-67
2022/01/14 08:51:14;;;;;;;22.40;16.40;;;;;;;1.93;79.12;98513.06;5091061;28;20390;-66
2022/01/14 08:53:39;;;;;;;20.20;15.53;;;;;;;1.65;80.16;98511.97;5095064;28;20471;-67
2022/01/14 08:56:05;;;;;;;20.23;14.60;;;;;;;1.51;80.36;98505.34;5077095;28;20478;-67
2022/01/14 08:58:31;;;;;;;21.10;15.43;;;;;;;1.43;81.83;98518.09;5094184;28;20759;-67
2022/01/14 09:00:56;;;;;;;21.10;15.17;;;;;;;1.74;80.75;98507.78;5094512;28;20534;-67
2022/01/14 09:03:22;;;;;;;19.50;14.02;;;;;;;1.78;80.54;98507.41;5094547;28;20397;-67
2022/01/14 09:05:47;;;;;;;22.17;14.53;;;;;;;2.18;79.14;98504.84;5094389;28;20802;-67
2022/01/14 09:08:12;;;;;;;17.83;13.73;;;;;;;2.20;78.30;98502.13;5093815;28;20407;-68
2022/01/14 09:10:39;;;;;;;19.35;14.27;;;;;;;2.19;79.53;98498.72;5094437;28;20394;-67
2022/01/14 09:13:05;;;;;;;18.58;13.50;;;;;;;2.63;76.73;98504.41;5094476;28;20389;-66
2022/01/14 09:15:30;;;;;;;20.83;13.53;;;;;;;2.29;77.59;98499.56;5094761;28;20790;-67
2022/01/14 09:17:56;;;;;;;17.73;13.10;;;;;;;2.40;77.21;98507.22;5094299;28;20386;-67
2022/01/14 09:20:21;;;;;;;17.67;13.47;;;;;;;2.38;76.81;98509.13;5093382;28;20489;-66
2022/01/14 09:22:48;;;;;;;19.70;14.02;;;;;;;2.39;77.13;98502.19;5094498;28;20397;-66
2022/01/14 09:25:16;;;;;;;24.00;16.63;;;;;;;2.41;78.06;98501.09;5094703;28;20394;-67
2022/01/14 09:27:42;;;;;;;26.00;18.17;;;;;;;2.67;77.24;98508.38;5075918;28;20390;-68
2022/01/14 09:30:08;;;;;;;26.33;18.23;;;;;;;2.61;76.89;98506.31;5093268;28;20390;-68
2022/01/14 09:32:34;;;;;;;26.07;17.93;;;;;;;2.28;77.97;98499.72;5087902;28;20406;-67
2022/01/14 09:35:03;;;;;;;22.40;17.27;;;;;;;2.27;79.06;98495.47;5094165;28;20847;-67
2022/01/14 09:37:29;;;;;;;21.25;16.08;;;;;;;2.08;79.51;98502.22;5093610;28;20416;-67
2022/01/14 09:39:55;;;;;;;21.67;16.20;;;;;;;2.24;79.26;98493.97;5093504;28;20463;-68
2022/01/14 09:42:20;;;;;;;20.80;14.87;;;;;;;2.27;79.03;98503.25;5093666;28;20402;-68
2022/01/14 09:44:46;;;;;;;19.85;14.65;;;;;;;2.72;77.09;98509.59;5093689;28;20454;-67
2022/01/14 09:47:19;;;;;;;17.60;14.17;;;;;;;2.91;76.59;98504.41;5093467;28;20396;-67
2022/01/14 09:49:45;;;;;;;18.33;13.10;;;;;;;3.03;74.71;98504.28;5093389;28;20401;-67
2022/01/14 09:52:15;;;;;;;16.55;12.80;;;;;;;2.72;76.39;98509.59;5093442;28;20413;-67
2022/01/14 09:54:45;;;;;;;16.92;11.93;;;;;;;2.63;75.79;98496.63;5093156;28;20496;-67
2022/01/14 09:57:12;;;;;;;15.30;10.73;;;;;;;2.80;75.27;98508.91;5093364;28;20415;-67
2022/01/14 09:59:38;;;;;;;14.77;10.95;;;;;;;2.89;74.31;98501.16;5093037;28;20389;-67
2022/01/14 10:02:04;;;;;;;17.02;12.55;;;;;;;3.20;73.38;98507.00;5075126;28;20894;-67
2022/01/14 10:04:30;;;;;;;19.15;14.43;;;;;;;3.24;73.86;98497.19;5093742;28;20400;-67
2022/01/14 10:06:57;;;;;;;20.08;15.05;;;;;;;3.24;75.16;98503.19;5092859;28;20432;-66
2022/01/14 10:09:33;;;;;;;17.92;14.00;;;;;;;3.45;74.92;98503.03;5074162;28;20408;-66
2022/01/14 10:12:06;;;;;;;19.13;13.82;;;;;;;3.67;74.67;98497.53;5093506;28;20422;-66
2022/01/14 10:14:34;;;;;;;17.90;13.27;;;;;;;3.23;75.78;98493.75;5092789;28;20409;-68
2022/01/14 10:17:02;;;;;;;17.80;13.70;;;;;;;3.52;75.50;98500.69;5088915;28;20402;-67
2022/01/14 10:19:34;;;;;;;16.70;13.40;;;;;;;3.75;74.55;98502.81;5087203;28;20402;-68
2022/01/14 10:22:00;;;;;;;18.48;13.95;;;;;;;3.75;74.06;98499.41;5086942;28;20871;-67
2022/01/14 10:24:32;;;;;;;17.83;13.73;;;;;;;3.68;75.19;98499.13;5086912;28;20390;-67
2022/01/14 10:27:03;;;;;;;17.60;13.53;;;;;;;3.65;74.57;98504.63;5087514;28;20904;-67
2022/01/14 10:29:38;;;;;;;18.63;13.60;;;;;;;3.66;74.49;98500.25;5091108;28;20488;-66
2022/01/14 10:32:06;;;;;;;18.33;13.18;;;;;;;3.67;74.43;98491.53;5092947;28;20394;-66
2022/01/14 10:34:32;;;;;;;15.98;12.75;;;;;;;3.96;72.48;98491.41;5093143;28;20726;-66
2022/01/14 10:37:15;;;;;;;15.60;11.57;;;;;;;3.90;72.49;98495.38;5092360;28;20908;-65
2022/01/14 10:39:49;;;;;;;15.93;12.90;;;;;;;4.05;72.70;98488.78;5086349;28;20417;-66
2022/01/14 10:42:25;;;;;;;18.38;13.73;;;;;;;4.18;73.09;98489.25;5084769;28;20419;-66
2022/01/14 10:44:50;;;;;;;14.40;11.10;;;;;;;4.20;71.00;98483.94;5078739;28;20401;-67
2022/01/14 10:47:22;;;;;;;13.53;9.87;;;;;;;3.93;70.41;98481.31;5092881;28;20382;-66
2022/01/14 10:49:50;;;;;;;12.23;9.88;;;;;;;4.22;68.84;98474.22;5092231;28;20408;-67
2022/01/14 10:52:20;;;;;;;13.80;10.50;;;;;;;4.08;69.35;98470.31;5092029;28;20756;-67
2022/01/14 10:54:58;;;;;;;12.70;9.75;;;;;;;4.05;70.06;98470.63;5091951;28;20451;-66
2022/01/14 10:57:29;;;;;;;12.27;9.00;;;;;;;4.37;67.83;98472.78;5074891;28;20399;-66
2022/01/14 10:59:57;;;;;;;12.02;9.13;;;;;;;4.42;67.32;98477.50;5076977;28;20395;-67
2022/01/14 11:02:36;;;;;;;13.35;10.32;;;;;;;4.47;68.35;98468.31;5072167;28;20923;-67
2022/01/14 11:05:01;;;;;;;14.90;11.07;;;;;;;4.37;69.44;98477.97;5072169;28;20407;-66
2022/01/14 11:07:27;;;;;;;14.55;11.10;;;;;;;4.40;69.90;98466.47;5085772;28;20475;-66
2022/01/14 11:09:52;;;;;;;14.67;11.10;;;;;;;4.66;69.49;98476.97;5064322;28;20397;-66
2022/01/14 11:12:19;;;;;;;13.05;10.73;;;;;;;4.56;69.16;98471.84;5081163;28;20446;-67
2022/01/14 11:14:44;;;;;;;14.38;11.35;;;;;;;4.57;70.12;98465.66;5056118;28;20438;-67
2022/01/14 11:17:10;;;;;;;13.52;10.52;;;;;;;4.81;68.66;98459.88;5088847;28;20390;-66
2022/01/14 11:19:36;;;;;;;14.00;10.90;;;;;;;4.92;68.48;98460.47;5090782;28;20490;-67
2022/01/14 11:24:47;;;;;;;16.02;11.07;;;;;;;5.13;68.03;98456.72;5082014;28;20984;-67
2022/01/14 11:27:14;;;;;;;14.70;11.23;;;;;;;5.29;67.86;98454.28;5078492;28;20426;-67
2022/01/14 11:29:43;;;;;;;15.30;11.68;;;;;;;5.27;68.34;98451.00;5084476;28;20951;-67
2022/01/14 11:32:10;;;;;;;17.30;11.27;;;;;;;5.29;68.88;98449.09;5079799;28;20184;-67
2022/01/14 11:34:42;;;;;;;19.00;10.77;;;;;;;5.41;69.00;98440.03;5093217;28;20540;-67
2022/01/14 11:37:14;;;;;;;16.93;11.30;;;;;;;5.12;70.09;98431.75;5092631;28;20637;-67
2022/01/14 11:39:53;;;;;;;16.67;11.33;;;;;;;5.31;70.43;98431.53;5076455;28;20224;-67
2022/01/14 11:42:18;;;;;;;19.10;10.60;;;;;;;5.12;70.79;98431.75;5081293;28;20200;-67